Time;durP1;ratioP1;P1;durP2;ratioP2;P2;SDS_P1;SDS_P2;PMS_P1;PMS_P2;Temp;Humidity;BMP_temperature;BMP_pressure;BME280_temperature;BME280_humidity;BME280_pressure;Samples;Min_cycle;Max_cycle;Signal;HPM_P1;HPM_P2
2021/12/10 00:04:53;;;;;;;2.50;1.97;;;6.20;94.40;;;;;;21085695;28;20235;-67
2021/12/10 00:14:55;;;;;;;2.23;1.83;;;6.30;94.40;;;;;;21084934;28;20203;-76
2021/12/10 00:24:57;;;;;;;2.90;1.90;;;6.30;94.20;;;;;;21086112;28;20234;-66
2021/12/10 00:35:00;;;;;;;2.50;2.00;;;6.30;93.70;;;;;;21083481;28;20727;-72
2021/12/10 00:45:05;;;;;;;2.70;2.00;;;6.20;93.90;;;;;;21082293;28;20294;-67
2021/12/10 00:55:08;;;;;;;3.23;2.30;;;6.20;93.90;;;;;;21081801;28;20234;-66
2021/12/10 01:05:11;;;;;;;4.00;2.70;;;6.10;93.60;;;;;;21081452;28;20228;-66
2021/12/10 01:16:14;;;;;;;6.37;3.00;;;6.20;93.50;;;;;;21080362;28;20202;-66
2021/12/10 01:26:38;;;;;;;6.97;3.20;;;6.20;93.80;;;;;;21079993;28;20231;-66
2021/12/10 01:36:40;;;;;;;7.17;3.30;;;6.40;93.60;;;;;;21079635;28;20604;-66
2021/12/10 01:46:45;;;;;;;7.77;3.30;;;6.40;93.90;;;;;;21078622;28;20246;-66
2021/12/10 01:56:49;;;;;;;10.67;3.47;;;6.30;93.80;;;;;;21079086;28;20212;-66
2021/12/10 02:06:51;;;;;;;10.03;3.57;;;6.30;93.80;;;;;;21081528;28;20280;-66
2021/12/10 02:16:59;;;;;;;8.60;3.20;;;6.30;93.50;;;;;;21094596;28;20741;-66
2021/12/10 02:27:05;;;;;;;7.87;3.30;;;6.40;93.80;;;;;;21094071;28;20234;-66
2021/12/10 02:37:07;;;;;;;4.50;2.80;;;6.40;93.70;;;;;;21092934;28;20207;-74
2021/12/10 02:47:08;;;;;;;7.10;3.10;;;6.30;93.40;;;;;;21091732;28;20288;-66
2021/12/10 02:57:16;;;;;;;7.50;3.37;;;6.30;93.70;;;;;;21091712;28;20214;-67
2021/12/10 03:07:19;;;;;;;5.77;3.10;;;6.40;93.80;;;;;;21090757;28;20240;-67
2021/12/10 03:17:24;;;;;;;8.30;3.53;;;6.40;93.70;;;;;;21089428;28;20232;-68
2021/12/10 03:27:25;;;;;;;9.17;3.47;;;6.40;93.90;;;;;;21089490;28;20227;-71
2021/12/10 03:37:27;;;;;;;7.67;3.27;;;6.40;93.90;;;;;;21088851;28;20207;-76
2021/12/10 03:47:29;;;;;;;6.73;3.20;;;6.30;94.00;;;;;;21087050;28;20236;-73
2021/12/10 03:57:31;;;;;;;6.63;3.87;;;6.20;94.00;;;;;;21086759;28;20207;-66
2021/12/10 04:07:33;;;;;;;9.43;3.90;;;6.10;94.10;;;;;;21085638;28;20227;-65
2021/12/10 04:17:37;;;;;;;5.57;3.37;;;6.00;94.20;;;;;;21085328;28;20209;-83
2021/12/10 04:27:40;;;;;;;8.13;3.50;;;5.70;94.20;;;;;;21083996;28;20234;-82
2021/12/10 04:37:42;;;;;;;8.50;4.13;;;5.60;94.10;;;;;;21087554;28;20207;-86
2021/12/10 04:47:45;;;;;;;6.93;3.67;;;5.50;94.50;;;;;;21082405;28;20292;-86
2021/12/10 04:57:47;;;;;;;9.97;3.40;;;5.50;94.50;;;;;;21083952;28;20727;-88
2021/12/10 05:07:48;;;;;;;5.03;3.57;;;5.30;94.10;;;;;;21083003;28;20276;-89
2021/12/10 05:17:52;;;;;;;6.70;3.20;;;5.30;94.40;;;;;;21081492;28;20607;-83
2021/12/10 05:27:56;;;;;;;7.50;3.50;;;5.20;94.30;;;;;;21080679;28;20318;-86
2021/12/10 05:37:58;;;;;;;5.77;3.43;;;5.10;93.90;;;;;;21079619;28;20206;-84
2021/12/10 05:47:59;;;;;;;6.27;3.60;;;4.90;93.90;;;;;;21079436;28;20240;-65
2021/12/10 05:58:02;;;;;;;12.73;4.13;;;4.80;94.10;;;;;;21077997;28;20260;-73
2021/12/10 06:08:04;;;;;;;11.38;5.05;;;4.70;94.20;;;;;;21072622;28;20510;-66
2021/12/10 06:18:08;;;;;;;9.07;3.47;;;5.20;93.90;;;;;;21077030;28;20229;-66
2021/12/10 06:28:10;;;;;;;8.57;3.87;;;4.70;94.10;;;;;;21077634;28;20690;-66
2021/12/10 06:38:11;;;;;;;5.43;3.33;;;4.60;93.60;;;;;;21079611;28;20252;-66
2021/12/10 06:48:15;;;;;;;11.07;3.77;;;4.50;93.60;;;;;;21074997;28;20310;-67
2021/12/10 06:58:18;;;;;;;7.73;4.10;;;4.50;93.90;;;;;;21086991;28;20647;-70
2021/12/10 07:08:22;;;;;;;7.30;4.03;;;4.40;93.60;;;;;;21089710;28;20280;-65
2021/12/10 07:18:25;;;;;;;10.10;5.47;;;4.40;93.50;;;;;;21084991;28;20494;-68
2021/12/10 07:28:26;;;;;;;12.53;5.47;;;4.90;93.80;;;;;;21087805;28;20299;-66
2021/12/10 07:38:28;;;;;;;15.23;6.63;;;4.50;93.50;;;;;;21086377;28;20206;-66
2021/12/10 07:48:32;;;;;;;16.80;8.10;;;4.50;93.40;;;;;;21085308;28;20291;-66
2021/12/10 07:58:34;;;;;;;18.43;9.53;;;4.50;93.40;;;;;;21084638;28;20258;-67
2021/12/10 08:08:36;;;;;;;19.50;9.97;;;4.50;93.30;;;;;;21084029;28;20705;-69
2021/12/10 08:18:39;;;;;;;19.00;10.87;;;4.50;93.30;;;;;;21082836;28;20345;-71
2021/12/10 08:28:42;;;;;;;20.30;11.77;;;4.60;93.30;;;;;;21082182;28;20635;-73
2021/12/10 08:38:45;;;;;;;21.80;11.70;;;4.60;93.50;;;;;;21030107;28;20231;-65
2021/12/10 08:48:48;;;;;;;19.47;11.20;;;4.70;93.20;;;;;;21031287;28;20592;-66
2021/12/10 08:58:50;;;;;;;17.67;11.23;;;4.70;93.20;;;;;;21007240;28;20234;-68
2021/12/10 09:08:53;;;;;;;18.93;11.00;;;4.70;93.10;;;;;;20996382;28;20239;-69
2021/12/10 09:19:02;;;;;;;18.10;11.70;;;4.60;93.10;;;;;;20995533;28;20666;-73
2021/12/10 09:29:07;;;;;;;21.40;11.30;;;4.80;92.90;;;;;;20995337;28;20669;-72
2021/12/10 09:39:11;;;;;;;17.73;10.97;;;4.80;93.20;;;;;;20996122;28;20207;-67
2021/12/10 09:49:14;;;;;;;18.00;11.57;;;4.90;92.60;;;;;;20993341;28;20299;-68
2021/12/10 09:59:16;;;;;;;23.37;10.47;;;5.20;92.50;;;;;;20993193;28;20659;-68
2021/12/10 10:09:20;;;;;;;16.40;9.77;;;5.20;92.70;;;;;;20992342;28;20231;-69
2021/12/10 10:19:25;;;;;;;12.33;8.53;;;5.40;92.40;;;;;;20992302;28;20207;-67
2021/12/10 10:29:32;;;;;;;15.07;8.47;;;5.60;92.00;;;;;;20997858;28;20234;-73
2021/12/10 10:39:36;;;;;;;18.30;9.70;;;5.80;91.60;;;;;;21007661;28;20261;-70
2021/12/10 10:49:38;;;;;;;14.57;8.73;;;5.90;91.40;;;;;;21005853;28;20247;-74
2021/12/10 10:59:40;;;;;;;14.37;8.60;;;5.90;90.70;;;;;;21005345;28;20208;-68
2021/12/10 11:09:47;;;;;;;12.83;8.30;;;5.80;90.80;;;;;;21005230;28;20240;-67
2021/12/10 11:19:56;;;;;;;14.17;7.87;;;6.00;90.30;;;;;;21004787;28;20232;-70
2021/12/10 11:30:01;;;;;;;22.57;8.00;;;6.10;90.00;;;;;;21003960;28;20312;-67
2021/12/10 11:40:03;;;;;;;13.10;8.07;;;6.20;90.40;;;;;;21003464;28;20266;-67
2021/12/10 11:50:20;;;;;;;22.20;8.00;;;6.30;89.70;;;;;;21002549;28;20273;-73
2021/12/10 12:00:28;;;;;;;22.23;8.37;;;6.40;89.60;;;;;;21001450;28;20207;-70
2021/12/10 12:10:43;;;;;;;12.30;7.93;;;6.50;90.20;;;;;;21000408;28;20245;-69
2021/12/10 12:31:32;;;;;;;11.03;7.00;;;6.70;88.90;;;;;;21004765;28;20236;-70
2021/12/10 12:41:47;;;;;;;9.70;6.27;;;6.80;89.40;;;;;;21053202;28;20291;-70
2021/12/10 12:52:10;;;;;;;10.30;6.30;;;6.90;88.50;;;;;;21042158;28;20251;-70
2021/12/10 13:02:12;;;;;;;15.50;4.93;;;6.90;87.60;;;;;;20996992;28;20277;-70
2021/12/10 13:12:35;;;;;;;7.87;4.07;;;6.90;86.40;;;;;;20996299;28;20244;-69
2021/12/10 13:22:39;;;;;;;11.20;3.63;;;6.90;85.80;;;;;;20993761;28;20227;-71
2021/12/10 13:32:42;;;;;;;7.37;3.27;;;6.70;82.30;;;;;;20993810;28;20234;-72
2021/12/10 13:42:46;;;;;;;5.57;3.00;;;6.70;81.30;;;;;;20995632;28;20267;-70
2021/12/10 13:53:16;;;;;;;8.47;4.20;;;6.70;80.80;;;;;;21026625;28;20245;-71
2021/12/10 14:03:43;;;;;;;6.60;2.87;;;6.60;80.40;;;;;;21080799;28;20208;-68
2021/12/10 14:13:57;;;;;;;6.57;3.50;;;6.70;80.90;;;;;;21093737;28;20289;-71
2021/12/10 14:24:00;;;;;;;6.07;3.33;;;4.70;78.10;;;;;;21056982;28;20231;-72
2021/12/10 14:34:23;;;;;;;7.97;3.33;;;6.60;79.70;;;;;;21091761;28;20313;-73
2021/12/10 14:44:28;;;;;;;9.03;3.27;;;6.50;79.80;;;;;;21025309;28;20228;-76
2021/12/10 14:54:51;;;;;;;7.63;3.87;;;6.50;80.00;;;;;;21087751;28;20288;-73
2021/12/10 15:05:14;;;;;;;8.83;3.80;;;6.50;80.30;;;;;;21091597;28;20315;-75
2021/12/10 15:16:00;;;;;;;7.30;3.43;;;6.50;80.70;;;;;;21069741;28;20236;-74
2021/12/10 15:26:06;;;;;;;5.80;3.30;;;6.50;81.30;;;;;;21005214;28;20233;-74
2021/12/10 15:36:08;;;;;;;7.43;3.10;;;6.40;81.20;;;;;;21003794;28;20205;-74
2021/12/10 15:46:20;;;;;;;6.20;3.60;;;6.30;82.70;;;;;;21038312;28;20235;-73
2021/12/10 15:56:27;;;;;;;6.53;3.67;;;6.10;84.40;;;;;;21002762;28;20203;-75
2021/12/10 16:06:29;;;;;;;6.83;4.20;;;5.90;85.70;;;;;;21074404;28;20269;-76
2021/12/10 16:16:37;;;;;;;7.30;4.73;;;5.80;87.70;;;;;;21086666;28;20236;-74
2021/12/10 16:26:45;;;;;;;7.20;5.10;;;5.80;88.80;;;;;;21044578;28;20562;-73
2021/12/10 16:36:52;;;;;;;10.83;6.00;;;5.70;89.10;;;;;;21083087;28;20219;-74
2021/12/10 16:46:58;;;;;;;10.03;6.17;;;5.60;90.40;;;;;;21000188;28;20239;-75
2021/12/10 16:57:04;;;;;;;12.07;6.60;;;5.60;90.90;;;;;;20999230;28;20214;-74
2021/12/10 17:07:12;;;;;;;12.33;6.97;;;5.50;91.20;;;;;;20997735;28;20231;-69
2021/12/10 17:17:22;;;;;;;10.13;6.70;;;5.50;91.50;;;;;;21031355;28;20562;-79
2021/12/10 17:27:29;;;;;;;8.87;6.30;;;5.50;92.00;;;;;;21078797;28;20661;-69
2021/12/10 17:37:33;;;;;;;11.23;7.53;;;5.40;92.10;;;;;;21041823;28;20558;-76
2021/12/10 17:47:41;;;;;;;12.57;8.17;;;5.30;92.20;;;;;;21061470;28;20239;-69
2021/12/10 17:57:53;;;;;;;10.60;7.20;;;5.40;92.60;;;;;;20994916;28;20260;-71
2021/12/10 18:07:56;;;;;;;11.93;7.73;;;5.40;92.80;;;;;;20995534;28;20238;-78
2021/12/10 18:18:04;;;;;;;11.87;7.97;;;5.30;92.70;;;;;;20994350;28;20203;-69
2021/12/10 18:28:08;;;;;;;12.53;8.20;;;5.20;93.10;;;;;;20993704;28;20292;-70
2021/12/10 18:38:11;;;;;;;18.93;9.00;;;5.30;93.40;;;;;;20993769;28;20262;-68
2021/12/10 18:48:15;;;;;;;19.73;9.87;;;5.30;93.10;;;;;;20994443;28;20243;-72
2021/12/10 18:58:21;;;;;;;14.87;9.87;;;5.30;93.40;;;;;;21006345;28;20211;-72
2021/12/10 19:08:35;;;;;;;15.27;10.13;;;5.30;93.50;;;;;;21006941;28;20595;-71
2021/12/10 19:18:43;;;;;;;15.47;10.17;;;5.30;93.80;;;;;;21006142;28;20257;-72
2021/12/10 19:28:53;;;;;;;15.37;11.00;;;5.30;93.60;;;;;;21005366;28;20631;-68
2021/12/10 19:39:04;;;;;;;17.30;11.37;;;5.30;93.80;;;;;;21005052;28;20203;-74
2021/12/10 19:49:09;;;;;;;16.47;11.53;;;5.20;93.80;;;;;;21003613;28;20300;-72
2021/12/10 19:59:17;;;;;;;16.93;11.67;;;5.20;93.90;;;;;;21039645;28;20198;-73
2021/12/10 20:09:53;;;;;;;23.57;14.23;;;5.20;94.00;;;;;;21086156;28;20246;-68
2021/12/10 20:20:00;;;;;;;24.03;15.50;;;5.20;94.10;;;;;;21052184;28;20642;-73
2021/12/10 20:30:19;;;;;;;22.07;15.00;;;5.20;94.40;;;;;;21084551;28;20230;-69
2021/12/10 20:40:36;;;;;;;19.63;13.17;;;5.20;94.60;;;;;;21082652;28;20203;-72
2021/12/10 20:50:40;;;;;;;23.37;13.90;;;5.20;94.60;;;;;;21081310;28;20245;-71
2021/12/10 21:01:03;;;;;;;23.27;18.98;;;5.10;94.70;;;;;;21080388;28;20432;-74
2021/12/10 21:11:11;;;;;;;25.60;15.17;;;5.00;94.60;;;;;;21081014;28;20266;-75
2021/12/10 21:21:22;;;;;;;22.50;14.67;;;5.00;95.20;;;;;;21012707;28;20601;-74
2021/12/10 21:31:34;;;;;;;22.67;14.67;;;5.10;95.20;;;;;;20996110;28;20281;-76
2021/12/10 21:41:38;;;;;;;27.70;16.33;;;5.10;95.20;;;;;;20995755;28;20217;-76
2021/12/10 21:52:01;;;;;;;28.80;17.40;;;4.90;95.10;;;;;;20995369;28;20244;-75
2021/12/10 22:02:15;;;;;;;28.10;17.30;;;4.80;95.30;;;;;;20993492;28;20251;-76
2021/12/10 22:12:26;;;;;;;28.20;18.43;;;4.80;95.70;;;;;;20994225;28;20240;-73
2021/12/10 22:22:48;;;;;;;33.10;18.40;;;4.80;95.70;;;;;;20997823;28;20568;-77
2021/12/10 22:32:59;;;;;;;25.20;16.87;;;4.80;95.60;;;;;;21010082;28;20234;-73
2021/12/10 22:43:20;;;;;;;29.40;17.83;;;4.90;95.80;;;;;;21009005;28;20206;-72
2021/12/10 22:53:33;;;;;;;26.17;16.90;;;4.80;95.60;;;;;;21008784;28;20246;-72
2021/12/10 23:03:41;;;;;;;26.27;17.17;;;4.90;95.90;;;;;;21007671;28;20717;-73
2021/12/10 23:13:47;;;;;;;27.47;18.23;;;4.90;95.80;;;;;;21006867;28;20247;-73
2021/12/10 23:24:17;;;;;;;33.20;19.60;;;4.90;95.70;;;;;;21006291;28;20276;-72
2021/12/10 23:34:20;;;;;;;28.30;17.67;;;5.00;95.90;;;;;;21004608;28;20569;-71
2021/12/10 23:44:30;;;;;;;30.30;17.40;;;4.90;95.70;;;;;;21004314;28;20234;-72
2021/12/10 23:54:40;;;;;;;27.27;17.33;;;4.90;96.10;;;;;;21004142;28;20231;-73
